createdAt,value
2017-05-11T00:00:47.887Z,3.30
2017-05-11T00:03:14.847Z,3.23
2017-05-11T00:05:41.821Z,4.02
2017-05-11T00:08:08.816Z,3.40
2017-05-11T00:10:35.752Z,4.02
2017-05-11T00:13:02.732Z,4.05
2017-05-11T00:15:29.654Z,3.85
2017-05-11T00:17:56.583Z,3.88
2017-05-11T00:20:23.531Z,4.20
2017-05-11T00:22:50.456Z,4.17
2017-05-11T00:25:18.133Z,5.13
2017-05-11T00:27:45.073Z,5.62
2017-05-11T00:30:12.004Z,7.32
2017-05-11T00:32:39.704Z,7.53
2017-05-11T00:35:06.611Z,6.98
2017-05-11T00:37:34.259Z,7.00
2017-05-11T00:40:01.217Z,5.60
2017-05-11T00:42:28.879Z,5.12
2017-05-11T00:44:56.536Z,4.72
2017-05-11T00:47:23.504Z,4.65
2017-05-11T00:49:50.415Z,5.15
2017-05-11T00:52:17.335Z,5.62
2017-05-11T00:54:44.296Z,5.52
2017-05-11T00:57:11.233Z,4.63
2017-05-11T00:59:38.161Z,4.60
2017-05-11T01:02:05.116Z,4.32
2017-05-11T01:04:32.115Z,5.25
2017-05-11T01:06:59.833Z,3.92
2017-05-11T01:09:26.821Z,4.50
2017-05-11T01:11:53.748Z,3.97
2017-05-11T01:14:20.765Z,4.00
2017-05-11T01:16:47.724Z,4.85
2017-05-11T01:19:14.659Z,4.85
2017-05-11T01:21:41.579Z,5.10
2017-05-11T01:24:08.536Z,4.25
2017-05-11T01:26:35.453Z,3.53
2017-05-11T01:29:02.384Z,4.43
2017-05-11T01:31:29.365Z,4.10
2017-05-11T01:33:56.299Z,4.15
2017-05-11T01:36:23.243Z,3.63
2017-05-11T01:38:50.272Z,3.93
2017-05-11T01:41:17.218Z,5.40
2017-05-11T01:43:44.170Z,6.48
2017-05-11T01:46:11.156Z,4.58
2017-05-11T01:48:38.133Z,5.18
2017-05-11T01:51:05.050Z,4.57
2017-05-11T01:53:32.019Z,3.98
2017-05-11T01:55:59.676Z,3.47
2017-05-11T01:58:27.356Z,3.50
2017-05-11T02:00:54.308Z,3.85
2017-05-11T02:03:21.296Z,3.92
2017-05-11T02:05:48.240Z,3.73
2017-05-11T02:08:15.180Z,4.12
2017-05-11T02:10:42.132Z,3.97
2017-05-11T02:13:09.848Z,4.17
2017-05-11T02:15:36.837Z,3.45
2017-05-11T02:18:03.816Z,4.88
2017-05-11T02:20:31.480Z,3.63
2017-05-11T02:22:59.140Z,3.85
2017-05-11T02:25:26.077Z,3.58
2017-05-11T02:27:53.033Z,3.55
2017-05-11T02:30:20.692Z,4.48
2017-05-11T02:32:48.349Z,3.62
2017-05-11T02:35:15.295Z,3.60
2017-05-11T02:37:42.273Z,3.78
2017-05-11T02:40:09.241Z,4.00
2017-05-11T02:42:36.174Z,3.93
2017-05-11T02:45:03.092Z,3.27
2017-05-11T02:47:30.046Z,3.23
2017-05-11T02:49:56.996Z,2.80
2017-05-11T02:52:23.924Z,3.07
2017-05-11T02:54:50.877Z,3.13
2017-05-11T02:57:17.789Z,2.70
2017-05-11T02:59:44.721Z,3.65
2017-05-11T03:02:11.701Z,4.37
2017-05-11T03:04:38.691Z,4.18
2017-05-11T03:07:05.616Z,4.60
2017-05-11T03:09:32.567Z,3.97
2017-05-11T03:11:59.491Z,3.83
2017-05-11T03:14:26.421Z,4.13
2017-05-11T03:16:54.114Z,4.30
2017-05-11T03:19:21.035Z,4.30
2017-05-11T03:21:47.963Z,4.17
2017-05-11T03:24:14.913Z,3.42
2017-05-11T03:26:42.586Z,3.28
2017-05-11T03:29:09.631Z,3.15
2017-05-11T03:31:37.304Z,2.82
2017-05-11T03:34:04.256Z,3.27
2017-05-11T03:36:31.196Z,3.37
2017-05-11T03:38:58.208Z,3.07
2017-05-11T03:41:25.128Z,2.55
2017-05-11T03:43:52.032Z,2.72
2017-05-11T03:46:19.017Z,2.70
2017-05-11T03:48:46.067Z,2.57
2017-05-11T03:51:13.085Z,2.83
2017-05-11T03:53:40.029Z,2.38
2017-05-11T03:56:07.016Z,2.53
2017-05-11T03:58:33.972Z,2.35
2017-05-11T04:01:00.896Z,2.73
2017-05-11T04:03:27.846Z,2.37
2017-05-11T04:05:54.772Z,2.92
2017-05-11T04:08:21.773Z,2.52
2017-05-11T04:10:48.738Z,2.82
2017-05-11T04:13:15.650Z,2.95
2017-05-11T04:15:43.467Z,2.72
2017-05-11T04:18:10.424Z,2.97
2017-05-11T04:20:37.398Z,2.55
2017-05-11T04:23:05.081Z,2.40
2017-05-11T04:25:32.007Z,2.33
2017-05-11T04:27:58.953Z,3.03
2017-05-11T04:30:25.919Z,2.65
2017-05-11T04:32:52.871Z,3.18
2017-05-11T04:35:19.809Z,3.50
2017-05-11T04:37:46.773Z,2.62
2017-05-11T04:40:13.704Z,3.10
2017-05-11T04:42:40.618Z,2.88
2017-05-11T04:45:08.300Z,3.35
2017-05-11T04:47:35.284Z,3.07
2017-05-11T04:50:02.263Z,2.82
2017-05-11T04:52:29.197Z,3.02
2017-05-11T04:54:56.121Z,2.98
2017-05-11T04:57:23.069Z,3.25
2017-05-11T04:59:50.009Z,3.15
2017-05-11T05:02:16.957Z,2.40
2017-05-11T05:04:43.913Z,2.40
2017-05-11T05:07:10.833Z,3.28
2017-05-11T05:09:37.772Z,2.88
2017-05-11T05:12:04.742Z,3.25
2017-05-11T05:14:31.669Z,2.68
2017-05-11T05:16:58.626Z,3.12
2017-05-11T05:19:25.601Z,4.08
2017-05-11T05:21:52.540Z,3.67
2017-05-11T05:24:19.555Z,3.40
2017-05-11T05:26:46.508Z,3.78
2017-05-11T05:29:13.456Z,3.88
2017-05-11T05:31:40.431Z,3.13
2017-05-11T05:34:08.154Z,3.40
2017-05-11T05:36:35.125Z,3.58
2017-05-11T05:39:02.096Z,3.12
2017-05-11T05:41:29.014Z,2.57
2017-05-11T05:43:55.989Z,3.03
2017-05-11T05:46:23.719Z,2.50
2017-05-11T05:48:50.672Z,2.40
2017-05-11T05:51:17.587Z,2.85
2017-05-11T05:53:44.528Z,2.80
2017-05-11T05:56:11.497Z,2.87
2017-05-11T05:58:38.564Z,2.70
2017-05-11T06:01:06.256Z,3.08
2017-05-11T06:03:33.205Z,3.45
2017-05-11T06:06:00.134Z,3.12
2017-05-11T06:08:27.052Z,3.67
2017-05-11T06:10:54.080Z,3.00
2017-05-11T06:13:21.043Z,3.12
2017-05-11T06:15:48.120Z,3.00
2017-05-11T06:18:15.076Z,2.98
2017-05-11T06:20:42.025Z,3.00
2017-05-11T06:23:08.958Z,2.53
2017-05-11T06:25:35.890Z,2.93
2017-05-11T06:28:02.846Z,2.68
2017-05-11T06:30:29.777Z,3.12
2017-05-11T06:32:57.513Z,3.15
2017-05-11T06:35:24.569Z,3.52
2017-05-11T06:37:51.536Z,3.02
2017-05-11T06:40:19.236Z,3.52
2017-05-11T06:42:46.274Z,3.97
2017-05-11T06:45:13.213Z,3.18
2017-05-11T06:47:40.186Z,3.63
2017-05-11T06:50:07.138Z,3.40
2017-05-11T06:52:34.072Z,3.00
2017-05-11T06:55:01.045Z,3.15
2017-05-11T06:57:28.038Z,3.38
2017-05-11T06:59:54.989Z,2.88
2017-05-11T07:02:22.278Z,3.08
2017-05-11T07:04:49.223Z,3.05
2017-05-11T07:07:16.162Z,2.87
2017-05-11T07:09:43.294Z,2.78
2017-05-11T07:12:10.271Z,2.40
2017-05-11T07:14:37.216Z,2.80
2017-05-11T07:17:04.193Z,2.87
2017-05-11T07:19:31.122Z,2.62
2017-05-11T07:21:58.045Z,2.83
2017-05-11T07:24:24.993Z,3.08
2017-05-11T07:26:51.913Z,3.55
2017-05-11T07:29:18.828Z,3.30
2017-05-11T07:31:45.829Z,3.87
2017-05-11T07:34:12.764Z,3.47
2017-05-11T07:36:39.709Z,3.60
2017-05-11T07:39:06.620Z,3.73
2017-05-11T07:41:33.539Z,3.70
2017-05-11T07:44:00.548Z,4.15
2017-05-11T07:46:27.480Z,3.60
2017-05-11T07:48:54.399Z,3.65
2017-05-11T07:51:21.391Z,3.40
2017-05-11T07:53:48.311Z,3.52
2017-05-11T07:56:15.238Z,3.43
2017-05-11T07:58:42.224Z,3.45
2017-05-11T08:01:09.177Z,3.77
2017-05-11T08:03:36.845Z,3.55
2017-05-11T08:06:04.535Z,4.57
2017-05-11T08:08:31.468Z,4.08
2017-05-11T08:10:58.436Z,3.70
2017-05-11T08:13:25.381Z,3.52
2017-05-11T08:15:52.380Z,3.57
2017-05-11T08:18:19.353Z,3.10
2017-05-11T08:20:46.320Z,3.30
2017-05-11T08:23:13.258Z,3.80
2017-05-11T08:25:40.209Z,3.65
2017-05-11T08:28:07.215Z,3.02
2017-05-11T08:30:34.884Z,3.55
2017-05-11T08:33:02.617Z,3.38
2017-05-11T08:35:29.569Z,3.00
2017-05-11T08:37:56.500Z,3.10
2017-05-11T08:40:23.468Z,4.58
2017-05-11T08:42:50.476Z,3.18
2017-05-11T08:45:17.425Z,3.63
2017-05-11T08:47:44.377Z,3.70
2017-05-11T08:50:11.320Z,3.32
2017-05-11T08:52:38.235Z,3.68
2017-05-11T08:55:05.163Z,3.10
2017-05-11T08:57:37.748Z,3.13
2017-05-11T09:00:04.686Z,3.20
2017-05-11T09:02:31.604Z,3.23
2017-05-11T09:04:59.304Z,3.10
2017-05-11T09:07:26.304Z,3.13
2017-05-11T09:09:53.221Z,2.68
2017-05-11T09:12:20.163Z,2.85
2017-05-11T09:14:47.136Z,2.78
2017-05-11T09:17:14.061Z,2.40
2017-05-11T09:19:40.993Z,2.57
2017-05-11T09:22:07.973Z,2.75
2017-05-11T09:24:34.913Z,2.75
2017-05-11T09:27:01.845Z,2.15
2017-05-11T09:29:28.809Z,2.43
2017-05-11T09:31:56.465Z,2.48
2017-05-11T09:34:23.437Z,2.68
2017-05-11T09:36:50.371Z,2.48
2017-05-11T09:39:18.048Z,2.40
2017-05-11T09:41:45.012Z,2.20
2017-05-11T09:44:12.001Z,2.35
2017-05-11T09:46:38.956Z,2.47
2017-05-11T09:49:06.636Z,2.48
2017-05-11T09:51:33.592Z,2.20
2017-05-11T09:54:00.525Z,2.15
2017-05-11T09:56:27.472Z,2.58
2017-05-11T09:58:54.481Z,2.00
2017-05-11T10:01:21.409Z,2.05
2017-05-11T10:03:48.346Z,2.83
2017-05-11T10:06:15.326Z,1.83
2017-05-11T10:08:42.256Z,2.05
2017-05-11T10:11:09.210Z,2.13
2017-05-11T10:13:36.179Z,2.25
2017-05-11T10:16:03.942Z,2.45
2017-05-11T10:18:31.616Z,2.30
2017-05-11T10:20:58.545Z,2.42
2017-05-11T10:23:26.232Z,2.25
2017-05-11T10:25:53.228Z,1.80
2017-05-11T10:28:20.189Z,2.07
2017-05-11T10:30:47.862Z,2.10
2017-05-11T10:38:58.921Z,0.75
2017-05-11T10:41:25.846Z,0.92
2017-05-11T10:43:52.785Z,1.20
2017-05-11T10:46:19.780Z,0.95
2017-05-11T10:48:46.712Z,1.00
2017-05-11T10:51:14.551Z,1.17
2017-05-11T10:53:41.506Z,1.10
2017-05-11T10:56:08.423Z,1.10
2017-05-11T10:58:35.344Z,1.20
2017-05-11T11:01:03.125Z,1.20
2017-05-11T11:03:30.058Z,1.22
2017-05-11T11:05:57.720Z,1.15
2017-05-11T11:08:25.697Z,1.20
2017-05-11T11:10:52.635Z,0.90
2017-05-11T11:13:20.338Z,0.83
2017-05-11T11:15:47.382Z,1.20
2017-05-11T11:18:14.344Z,1.30
2017-05-11T11:20:41.289Z,1.07
2017-05-11T11:23:08.265Z,1.38
2017-05-11T11:25:35.204Z,1.13
2017-05-11T11:28:02.122Z,0.90
2017-05-11T11:30:29.076Z,1.28
2017-05-11T11:32:55.999Z,1.30
2017-05-11T11:35:22.949Z,1.08
2017-05-11T11:37:49.908Z,1.05
2017-05-11T11:40:16.831Z,1.22
2017-05-11T11:42:43.761Z,1.25
2017-05-11T11:45:10.721Z,1.07
2017-05-11T11:47:37.639Z,1.38
2017-05-11T11:50:04.582Z,1.32
2017-05-11T11:52:31.553Z,1.08
2017-05-11T11:54:58.488Z,1.02
2017-05-11T11:57:25.412Z,1.35
2017-05-11T11:59:52.393Z,1.10
2017-05-11T12:02:19.340Z,1.23
2017-05-11T12:04:46.257Z,1.18
2017-05-11T12:07:13.220Z,1.23
2017-05-11T12:09:40.155Z,1.08
2017-05-11T12:12:07.096Z,1.57
2017-05-11T12:14:34.053Z,1.50
2017-05-11T12:17:01.268Z,1.72
2017-05-11T12:19:28.932Z,1.37
2017-05-11T12:21:55.922Z,1.45
2017-05-11T12:24:22.841Z,1.48
2017-05-11T12:26:49.756Z,1.48
2017-05-11T12:29:17.465Z,1.45
2017-05-11T12:31:44.398Z,1.45
2017-05-11T12:34:11.347Z,1.63
2017-05-11T12:36:38.309Z,1.60
2017-05-11T12:39:05.236Z,1.97
2017-05-11T12:41:32.203Z,1.60
2017-05-11T12:43:59.120Z,1.58
2017-05-11T12:46:26.119Z,1.75
2017-05-11T12:48:53.069Z,1.63
2017-05-11T12:51:19.993Z,1.80
2017-05-11T12:53:46.953Z,1.93
2017-05-11T12:56:13.926Z,1.37
2017-05-11T12:58:40.891Z,1.60
2017-05-11T13:01:07.832Z,1.73
2017-05-11T13:03:34.785Z,1.95
2017-05-11T13:06:01.709Z,1.75
2017-05-11T13:08:28.642Z,1.48
2017-05-11T13:10:56.379Z,1.42
2017-05-11T13:13:23.406Z,1.10
2017-05-11T13:15:50.368Z,1.05
2017-05-11T13:18:17.341Z,1.65
2017-05-11T13:20:45.022Z,1.58
2017-05-11T13:23:12.033Z,1.62
2017-05-11T13:25:39.061Z,1.40
2017-05-11T13:28:06.001Z,1.00
2017-05-11T13:30:32.952Z,0.73
2017-05-11T13:32:59.941Z,0.95
2017-05-11T13:35:26.890Z,0.90
2017-05-11T13:37:53.825Z,1.10
2017-05-11T13:40:21.521Z,0.92
2017-05-11T13:42:48.498Z,1.20
2017-05-11T13:45:15.443Z,0.73
2017-05-11T13:47:42.373Z,0.87
2017-05-11T13:50:09.380Z,0.85
2017-05-11T13:52:36.314Z,1.10
2017-05-11T13:55:03.237Z,1.53
2017-05-11T13:57:30.302Z,1.70
2017-05-11T13:59:57.994Z,1.90
2017-05-11T14:02:24.924Z,1.33
2017-05-11T14:04:51.901Z,1.45
2017-05-11T14:07:18.853Z,1.53
2017-05-11T14:09:45.799Z,1.33
2017-05-11T14:12:12.806Z,1.72
2017-05-11T14:14:39.889Z,1.35
2017-05-11T14:17:06.820Z,1.07
2017-05-11T14:19:33.789Z,1.60
2017-05-11T14:22:00.728Z,1.50
2017-05-11T14:24:27.678Z,1.50
2017-05-11T14:26:54.669Z,1.40
2017-05-11T14:29:21.608Z,1.60
2017-05-11T14:31:49.282Z,1.50
2017-05-11T14:34:16.247Z,1.40
2017-05-11T14:36:43.190Z,1.45
2017-05-11T14:39:10.116Z,1.48
2017-05-11T14:41:37.223Z,1.52
2017-05-11T14:44:04.197Z,1.38
2017-05-11T14:46:31.878Z,1.77
2017-05-11T14:48:59.120Z,1.63
2017-05-11T14:51:26.055Z,1.45
2017-05-11T14:53:53.094Z,1.35
2017-05-11T14:56:20.797Z,1.30
2017-05-11T14:58:47.760Z,1.17
2017-05-11T15:01:14.707Z,1.40
2017-05-11T15:03:41.686Z,1.43
2017-05-11T15:06:09.379Z,1.38
2017-05-11T15:08:36.622Z,1.67
2017-05-11T15:11:03.568Z,1.83
2017-05-11T15:13:30.560Z,1.30
2017-05-11T15:15:57.500Z,1.77
2017-05-11T15:18:24.448Z,1.95
2017-05-11T15:20:51.469Z,1.80
2017-05-11T15:23:18.430Z,1.88
2017-05-11T15:25:45.372Z,1.87
2017-05-11T15:28:12.342Z,1.90
2017-05-11T15:30:39.333Z,1.33
2017-05-11T15:33:06.303Z,1.50
2017-05-11T15:35:33.272Z,1.80
2017-05-11T15:38:00.265Z,1.48
2017-05-11T15:40:27.211Z,1.62
2017-05-11T15:42:54.176Z,1.73
2017-05-11T15:45:21.156Z,1.70
2017-05-11T15:47:48.136Z,1.33
2017-05-11T15:50:15.870Z,1.68
2017-05-11T15:52:42.797Z,1.18
2017-05-11T15:55:09.773Z,1.20
2017-05-11T15:57:36.763Z,1.23
2017-05-11T16:00:03.746Z,1.30
2017-05-11T16:02:30.715Z,2.18
2017-05-11T16:04:57.674Z,3.08
2017-05-11T16:07:24.600Z,2.23
2017-05-11T16:09:51.605Z,1.45
2017-05-11T16:12:18.675Z,1.72
2017-05-11T16:14:45.601Z,1.48
2017-05-11T16:17:12.557Z,1.72
2017-05-11T16:19:39.519Z,1.50
2017-05-11T16:22:06.457Z,1.88
2017-05-11T16:24:33.463Z,1.90
2017-05-11T16:27:00.403Z,2.72
2017-05-11T16:29:27.353Z,2.18
2017-05-11T16:31:54.728Z,2.48
2017-05-11T16:34:21.669Z,2.10
2017-05-11T16:36:48.611Z,1.50
2017-05-11T16:39:15.592Z,1.73
2017-05-11T16:41:42.545Z,1.98
2017-05-11T16:44:09.475Z,2.50
2017-05-11T16:46:36.525Z,1.55
2017-05-11T16:49:03.483Z,1.37
2017-05-11T16:51:31.172Z,1.62
2017-05-11T16:53:58.141Z,1.50
2017-05-11T16:56:25.104Z,1.42
2017-05-11T16:58:52.043Z,1.38
2017-05-11T17:01:19.002Z,1.67
2017-05-11T17:03:45.932Z,1.87
2017-05-11T17:06:12.869Z,1.72
2017-05-11T17:08:39.848Z,1.35
2017-05-11T17:11:06.813Z,1.40
2017-05-11T17:13:34.503Z,1.42
2017-05-11T17:16:01.483Z,1.33
2017-05-11T17:18:28.421Z,1.30
2017-05-11T17:20:55.363Z,1.48
2017-05-11T17:23:22.336Z,1.15
2017-05-11T17:25:49.342Z,1.32
2017-05-11T17:28:16.305Z,1.32
2017-05-11T17:30:45.471Z,1.20
2017-05-11T17:33:12.413Z,1.43
2017-05-11T17:35:39.348Z,1.45
2017-05-11T17:38:06.331Z,1.73
2017-05-11T17:40:33.268Z,1.80
2017-05-11T17:43:00.236Z,1.90
2017-05-11T17:45:27.200Z,2.08
2017-05-11T17:47:54.932Z,1.70
2017-05-11T17:50:21.901Z,1.78
2017-05-11T17:52:48.874Z,2.12
2017-05-11T17:55:15.816Z,6.92
2017-05-11T17:57:42.795Z,2.18
2017-05-11T18:00:09.752Z,1.75
2017-05-11T18:02:36.816Z,1.63
2017-05-11T18:05:03.792Z,1.95
2017-05-11T18:07:30.738Z,2.10
2017-05-11T18:09:57.748Z,1.80
2017-05-11T18:12:24.793Z,1.75
2017-05-11T18:14:51.747Z,2.28
2017-05-11T18:17:18.673Z,2.00
2017-05-11T18:19:45.713Z,2.42
2017-05-11T18:22:12.664Z,1.83
2017-05-11T18:24:39.655Z,1.83
2017-05-11T18:27:07.378Z,1.90
2017-05-11T18:29:34.330Z,2.48
2017-05-11T18:32:01.301Z,2.00
2017-05-11T18:34:29.006Z,6.52
2017-05-11T18:36:55.981Z,4.13
2017-05-11T18:39:22.937Z,3.08
2017-05-11T18:41:49.855Z,2.60
2017-05-11T18:44:16.833Z,2.27
2017-05-11T18:46:44.625Z,1.73
2017-05-11T18:49:11.596Z,2.10
2017-05-11T18:51:38.567Z,2.40
2017-05-11T18:54:05.523Z,2.22
2017-05-11T18:56:32.462Z,2.43
2017-05-11T18:58:59.457Z,2.35
2017-05-11T19:01:26.442Z,2.40
2017-05-11T19:03:53.416Z,2.33
2017-05-11T19:06:20.349Z,2.63
2017-05-11T19:08:47.332Z,2.67
2017-05-11T19:11:14.280Z,2.30
2017-05-11T19:13:41.233Z,2.40
2017-05-11T19:16:08.156Z,2.82
2017-05-11T19:18:35.844Z,2.30
2017-05-11T19:21:02.790Z,2.30
2017-05-11T19:23:29.751Z,2.70
2017-05-11T19:25:56.756Z,5.55
2017-05-11T19:28:24.424Z,3.57
2017-05-11T19:30:51.393Z,3.20
2017-05-11T19:33:18.313Z,2.93
2017-05-11T19:35:45.269Z,6.48
2017-05-11T19:38:12.236Z,6.67
2017-05-11T19:40:39.186Z,4.17
2017-05-11T19:43:06.129Z,5.67
2017-05-11T19:45:33.085Z,11.83
2017-05-11T19:48:00.028Z,3.07
2017-05-11T19:50:26.996Z,12.80
2017-05-11T19:52:54.020Z,4.23
2017-05-11T19:55:20.985Z,3.67
2017-05-11T19:57:47.985Z,3.55
2017-05-11T20:00:14.916Z,3.62
2017-05-11T20:02:41.864Z,2.28
2017-05-11T20:05:08.852Z,2.40
2017-05-11T20:07:35.797Z,1.98
2017-05-11T20:10:02.741Z,2.02
2017-05-11T20:12:29.698Z,2.40
2017-05-11T20:14:57.039Z,2.67
2017-05-11T20:17:23.987Z,2.83
2017-05-11T20:19:50.948Z,1.97
2017-05-11T20:22:17.897Z,1.73
2017-05-11T20:24:45.568Z,2.00
2017-05-11T20:27:13.266Z,2.03
2017-05-11T20:29:40.262Z,1.93
2017-05-11T20:32:07.189Z,1.85
2017-05-11T20:34:34.144Z,1.60
2017-05-11T20:37:01.115Z,1.97
2017-05-11T20:39:28.788Z,2.58
2017-05-11T20:41:55.753Z,2.40
2017-05-11T20:44:22.661Z,3.23
2017-05-11T20:46:49.621Z,3.57
2017-05-11T20:49:16.545Z,2.82
2017-05-11T20:51:43.474Z,2.00
2017-05-11T20:54:10.432Z,2.33
2017-05-11T20:56:38.097Z,2.30
2017-05-11T20:59:05.775Z,2.30
2017-05-11T21:01:32.752Z,4.68
2017-05-11T21:03:59.714Z,4.65
2017-05-11T21:06:26.651Z,2.32
2017-05-11T21:08:53.608Z,1.90
2017-05-11T21:11:20.535Z,2.50
2017-05-11T21:13:47.510Z,2.37
2017-05-11T21:16:14.447Z,6.28
2017-05-11T21:18:41.376Z,3.13
2017-05-11T21:21:08.342Z,2.65
2017-05-11T21:23:36.004Z,2.35
2017-05-11T21:26:02.968Z,2.52
2017-05-11T21:28:30.631Z,2.88
2017-05-11T21:30:58.296Z,2.20
2017-05-11T21:33:26.032Z,2.35
2017-05-11T21:35:52.971Z,5.73
2017-05-11T21:38:19.918Z,3.25
2017-05-11T21:40:46.894Z,3.40
2017-05-11T21:43:14.609Z,2.38
2017-05-11T21:45:41.537Z,15.83
2017-05-11T21:48:08.514Z,12.57
2017-05-11T21:50:35.440Z,8.90
2017-05-11T21:53:02.373Z,8.13
2017-05-11T21:55:29.349Z,9.63
2017-05-11T21:57:56.278Z,8.33
2017-05-11T22:00:23.208Z,7.37
2017-05-11T22:02:50.160Z,5.45
2017-05-11T22:05:17.125Z,5.78
2017-05-11T22:07:44.124Z,17.88
2017-05-11T22:10:11.065Z,23.15
2017-05-11T22:12:37.989Z,16.55
2017-05-11T22:15:04.963Z,5.07
2017-05-11T22:17:31.872Z,2.43
2017-05-11T22:19:59.533Z,1.83
2017-05-11T22:22:26.483Z,1.90
2017-05-11T22:24:54.141Z,1.95
2017-05-11T22:27:21.799Z,2.13
2017-05-11T22:29:49.501Z,2.27
2017-05-11T22:32:16.448Z,1.75
2017-05-11T22:34:43.368Z,1.62
2017-05-11T22:37:10.305Z,1.80
2017-05-11T22:39:38.011Z,1.85
2017-05-11T22:42:04.945Z,1.53
2017-05-11T22:44:31.862Z,1.85
2017-05-11T22:46:59.560Z,1.50
2017-05-11T22:49:26.597Z,1.78
2017-05-11T22:51:53.515Z,2.00
2017-05-11T22:54:21.187Z,1.97
2017-05-11T22:56:48.117Z,2.08
2017-05-11T22:59:16.202Z,1.78
2017-05-11T23:01:43.121Z,1.88
2017-05-11T23:04:10.781Z,2.02
2017-05-11T23:06:37.816Z,2.00
2017-05-11T23:09:04.746Z,2.48
2017-05-11T23:11:31.670Z,2.00
2017-05-11T23:13:58.603Z,1.97
2017-05-11T23:16:25.523Z,2.08
2017-05-11T23:18:52.482Z,2.08
2017-05-11T23:21:19.411Z,1.70
2017-05-11T23:23:46.324Z,2.00
2017-05-11T23:26:13.280Z,2.63
2017-05-11T23:28:40.284Z,1.78
2017-05-11T23:31:07.206Z,2.02
2017-05-11T23:33:34.169Z,1.80
2017-05-11T23:36:01.089Z,1.98
2017-05-11T23:38:28.026Z,2.10
2017-05-11T23:40:54.991Z,2.22
2017-05-11T23:43:21.902Z,2.52
2017-05-11T23:45:49.562Z,2.20
2017-05-11T23:48:16.505Z,2.20
2017-05-11T23:50:44.161Z,2.40
2017-05-11T23:53:11.837Z,1.98
2017-05-11T23:55:39.514Z,2.47
2017-05-11T23:58:06.437Z,2.58
